createdAt,value
2023-05-06T00:01:45.210Z,100.00
2023-05-06T00:04:12.686Z,99.57
2023-05-06T00:06:41.660Z,98.45
2023-05-06T00:09:09.613Z,98.04
2023-05-06T00:11:37.215Z,99.04
2023-05-06T00:14:04.741Z,100.00
2023-05-06T00:16:33.661Z,98.64
2023-05-06T00:19:01.357Z,98.36
2023-05-06T00:21:28.838Z,100.00
2023-05-06T00:23:56.410Z,98.88
2023-05-06T00:26:23.945Z,100.00
2023-05-06T00:28:51.431Z,100.00
2023-05-06T00:31:18.969Z,99.87
2023-05-06T00:33:47.776Z,99.36
2023-05-06T00:36:15.326Z,100.00
2023-05-06T00:38:42.778Z,98.63
2023-05-06T00:41:10.254Z,100.00
2023-05-06T00:43:37.749Z,98.27
2023-05-06T00:46:12.122Z,100.00
2023-05-06T00:48:40.588Z,99.19
2023-05-06T00:51:09.441Z,98.05
2023-05-06T00:53:37.068Z,100.00
2023-05-06T00:56:04.935Z,99.44
2023-05-06T00:58:32.516Z,97.86
2023-05-06T01:01:01.742Z,99.42
2023-05-06T01:03:29.436Z,100.00
2023-05-06T01:06:08.225Z,99.50
2023-05-06T01:08:45.354Z,100.00
2023-05-06T01:11:15.917Z,97.69
2023-05-06T01:13:48.066Z,99.83
2023-05-06T01:16:18.858Z,100.00
2023-05-06T01:18:49.716Z,99.48
2023-05-06T01:21:19.167Z,96.74
2023-05-06T01:23:57.617Z,97.56
2023-05-06T01:26:25.757Z,100.00
2023-05-06T01:28:53.865Z,100.00
2023-05-06T01:31:27.017Z,100.00
2023-05-06T01:34:06.915Z,100.00
2023-05-06T01:36:39.963Z,100.00
2023-05-06T01:39:17.471Z,97.91
2023-05-06T01:41:48.043Z,97.40
2023-05-06T01:44:16.520Z,98.39
2023-05-06T01:46:46.130Z,95.30
2023-05-06T01:49:15.781Z,98.39
2023-05-06T01:51:48.819Z,98.82
2023-05-06T01:54:17.897Z,95.75
2023-05-06T01:56:45.430Z,100.00
2023-05-06T01:59:13.101Z,98.79
2023-05-06T02:01:40.714Z,97.79
2023-05-06T02:04:08.333Z,100.00
2023-05-06T02:06:35.844Z,100.00
2023-05-06T02:09:03.347Z,99.42
2023-05-06T02:11:32.179Z,98.11
2023-05-06T02:13:59.668Z,96.91
2023-05-06T02:16:28.710Z,96.05
2023-05-06T02:18:56.444Z,100.00
2023-05-06T02:21:24.014Z,97.91
2023-05-06T02:23:51.483Z,98.67
2023-05-06T02:26:18.955Z,98.20
2023-05-06T02:28:47.756Z,100.00
2023-05-06T02:31:16.144Z,98.80
2023-05-06T02:33:44.731Z,97.14
2023-05-06T02:36:12.290Z,97.48
2023-05-06T02:38:39.841Z,96.88
2023-05-06T02:41:07.342Z,95.70
2023-05-06T02:43:34.806Z,93.06
2023-05-06T02:46:03.669Z,98.54
2023-05-06T02:48:31.254Z,90.86
2023-05-06T02:50:58.704Z,94.48
2023-05-06T02:53:26.226Z,94.94
2023-05-06T02:55:53.827Z,94.66
2023-05-06T02:58:21.285Z,94.39
2023-05-06T03:00:48.760Z,100.00
2023-05-06T03:03:18.071Z,99.19
2023-05-06T03:05:45.723Z,94.11
2023-05-06T03:08:13.178Z,98.54
2023-05-06T03:10:40.632Z,95.91
2023-05-06T03:13:08.196Z,99.76
2023-05-06T03:15:35.796Z,96.46
2023-05-06T03:18:03.297Z,92.70
2023-05-06T03:20:32.113Z,92.11
2023-05-06T03:22:59.737Z,93.97
2023-05-06T03:25:27.215Z,94.57
2023-05-06T03:27:54.975Z,94.28
2023-05-06T03:30:22.415Z,94.55
2023-05-06T03:32:49.942Z,92.58
2023-05-06T03:35:17.874Z,92.42
2023-05-06T03:37:46.710Z,91.34
2023-05-06T03:40:14.331Z,89.99
2023-05-06T03:42:41.808Z,96.52
2023-05-06T03:45:10.043Z,93.43
2023-05-06T03:47:38.172Z,92.39
2023-05-06T03:50:06.517Z,93.02
2023-05-06T03:52:34.034Z,93.96
2023-05-06T03:55:03.162Z,96.37
2023-05-06T03:57:30.672Z,96.50
2023-05-06T03:59:58.155Z,91.98
2023-05-06T04:02:25.860Z,90.83
2023-05-06T04:04:53.498Z,95.11
2023-05-06T04:07:20.946Z,88.97
2023-05-06T04:09:48.394Z,94.89
2023-05-06T04:12:17.194Z,95.07
2023-05-06T04:14:44.693Z,92.18
2023-05-06T04:17:12.168Z,91.26
2023-05-06T04:19:39.613Z,93.25
2023-05-06T04:22:07.341Z,94.69
2023-05-06T04:24:34.775Z,92.89
2023-05-06T04:27:04.105Z,94.25
2023-05-06T04:29:32.961Z,98.89
2023-05-06T04:32:00.537Z,100.00
2023-05-06T04:34:28.867Z,100.00
2023-05-06T04:36:56.435Z,100.00
2023-05-06T04:39:24.086Z,98.26
2023-05-06T04:41:51.635Z,93.25
2023-05-06T04:44:19.387Z,100.00
2023-05-06T04:46:48.473Z,100.00
2023-05-06T04:49:15.925Z,100.00
2023-05-06T04:51:43.368Z,100.00
2023-05-06T04:54:11.003Z,100.00
2023-05-06T04:56:38.495Z,100.00
2023-05-06T04:59:05.958Z,100.00
2023-05-06T05:01:33.426Z,100.00
2023-05-06T05:04:02.248Z,100.00
2023-05-06T05:06:29.721Z,97.78
2023-05-06T05:08:57.191Z,100.00
2023-05-06T05:11:24.657Z,100.00
2023-05-06T05:13:53.379Z,100.00
2023-05-06T05:16:21.850Z,96.66
2023-05-06T05:18:49.339Z,98.70
2023-05-06T05:21:18.122Z,96.22
2023-05-06T05:23:45.627Z,95.72
2023-05-06T05:26:13.108Z,97.44
2023-05-06T05:28:40.636Z,97.97
2023-05-06T05:31:10.213Z,96.93
2023-05-06T05:33:38.094Z,96.91
2023-05-06T05:36:06.061Z,96.38
2023-05-06T05:38:34.917Z,99.31
2023-05-06T05:41:02.595Z,99.37
2023-05-06T05:43:31.384Z,99.43
2023-05-06T05:45:59.024Z,97.54
2023-05-06T05:48:26.499Z,99.08
2023-05-06T05:50:54.141Z,99.95
2023-05-06T05:53:21.574Z,100.00
2023-05-06T05:55:52.370Z,100.00
2023-05-06T05:58:20.276Z,99.52
2023-05-06T06:00:47.863Z,99.12
2023-05-06T06:03:15.452Z,100.00
2023-05-06T06:05:43.157Z,100.00
2023-05-06T06:08:10.782Z,100.00
2023-05-06T06:10:38.238Z,99.92
2023-05-06T06:13:07.102Z,100.00
2023-05-06T06:15:34.793Z,100.00
2023-05-06T06:18:02.622Z,100.00
2023-05-06T06:20:30.113Z,100.00
2023-05-06T06:22:57.583Z,99.63
2023-05-06T06:25:25.023Z,97.23
2023-05-06T06:27:52.475Z,99.05
2023-05-06T06:30:21.320Z,97.14
2023-05-06T06:32:50.086Z,98.78
2023-05-06T06:35:19.006Z,98.74
2023-05-06T06:37:46.913Z,99.17
2023-05-06T06:40:15.034Z,99.65
2023-05-06T06:42:42.484Z,98.70
2023-05-06T06:45:10.925Z,99.80
2023-05-06T06:47:40.002Z,98.49
2023-05-06T06:50:09.106Z,97.95
2023-05-06T06:52:36.895Z,98.09
2023-05-06T06:55:05.070Z,96.66
2023-05-06T06:57:32.571Z,97.14
2023-05-06T07:00:00.087Z,96.77
2023-05-06T07:02:27.621Z,97.47
2023-05-06T07:04:56.414Z,97.60
2023-05-06T07:07:23.897Z,98.31
2023-05-06T07:09:51.347Z,97.75
2023-05-06T07:12:18.801Z,97.86
2023-05-06T07:14:46.376Z,96.60
2023-05-06T07:17:14.295Z,96.60
2023-05-06T07:19:41.772Z,95.92
2023-05-06T07:22:10.588Z,94.75
2023-05-06T07:24:38.118Z,93.46
2023-05-06T07:27:05.767Z,93.21
2023-05-06T07:29:34.787Z,94.27
2023-05-06T07:32:02.291Z,95.08
2023-05-06T07:34:29.786Z,92.38
2023-05-06T07:36:57.224Z,92.39
2023-05-06T07:39:26.259Z,91.85
2023-05-06T07:41:53.847Z,90.94
2023-05-06T07:44:21.333Z,89.04
2023-05-06T07:46:49.114Z,89.56
2023-05-06T07:49:16.590Z,88.61
2023-05-06T07:51:45.643Z,89.47
2023-05-06T07:54:13.336Z,88.42
2023-05-06T07:56:42.225Z,86.93
2023-05-06T07:59:09.738Z,87.33
2023-05-06T08:01:37.397Z,87.34
2023-05-06T08:04:05.133Z,86.02
2023-05-06T08:06:33.016Z,84.92
2023-05-06T08:09:00.662Z,85.05
2023-05-06T08:11:28.130Z,83.78
2023-05-06T08:13:56.914Z,83.15
2023-05-06T08:16:25.481Z,81.09
2023-05-06T08:18:53.243Z,81.29
2023-05-06T08:21:20.687Z,81.65
2023-05-06T08:23:48.215Z,81.28
2023-05-06T08:26:15.741Z,81.53
2023-05-06T08:28:43.208Z,82.36
2023-05-06T08:31:12.103Z,79.87
2023-05-06T08:33:39.562Z,80.31
2023-05-06T08:36:07.488Z,80.45
2023-05-06T08:38:34.937Z,77.43
2023-05-06T08:41:08.834Z,75.91
2023-05-06T08:43:41.820Z,76.60
2023-05-06T08:46:09.676Z,76.13
2023-05-06T08:48:38.590Z,75.08
2023-05-06T08:51:06.932Z,74.04
2023-05-06T08:53:34.831Z,75.31
2023-05-06T08:56:04.985Z,74.03
2023-05-06T08:58:34.849Z,75.92
2023-05-06T09:01:04.120Z,76.57
2023-05-06T09:03:32.038Z,76.74
2023-05-06T09:06:00.932Z,76.19
2023-05-06T09:08:28.391Z,73.67
2023-05-06T09:10:55.930Z,73.87
2023-05-06T09:13:23.454Z,75.20
2023-05-06T09:15:55.139Z,75.31
2023-05-06T09:18:23.746Z,73.95
2023-05-06T09:20:51.449Z,74.36
2023-05-06T09:23:23.586Z,74.06
2023-05-06T09:25:51.267Z,74.63
2023-05-06T09:28:18.734Z,72.74
2023-05-06T09:30:47.470Z,69.14
2023-05-06T09:33:15.187Z,69.49
2023-05-06T09:35:44.379Z,70.05
2023-05-06T09:38:11.977Z,71.55
2023-05-06T09:40:40.842Z,68.51
2023-05-06T09:43:09.888Z,68.95
2023-05-06T09:45:37.675Z,67.34
2023-05-06T09:48:05.533Z,69.59
2023-05-06T09:50:33.707Z,67.34
2023-05-06T09:53:03.548Z,64.96
2023-05-06T09:55:31.498Z,65.06
2023-05-06T09:58:01.547Z,67.54
2023-05-06T10:00:31.367Z,68.83
2023-05-06T10:03:00.097Z,64.50
2023-05-06T10:05:29.687Z,66.60
2023-05-06T10:07:58.169Z,64.66
2023-05-06T10:10:28.098Z,65.82
2023-05-06T10:12:56.350Z,66.04
2023-05-06T10:15:26.945Z,65.75
2023-05-06T10:17:55.231Z,63.89
2023-05-06T10:20:25.699Z,61.60
2023-05-06T10:23:02.078Z,59.46
2023-05-06T10:25:36.668Z,64.38
2023-05-06T10:28:08.026Z,62.65
2023-05-06T10:30:41.263Z,64.14
2023-05-06T10:33:11.242Z,66.13
2023-05-06T10:35:45.944Z,63.92
2023-05-06T10:38:18.964Z,65.03
2023-05-06T10:40:47.601Z,65.42
2023-05-06T10:43:25.529Z,64.21
2023-05-06T10:46:06.962Z,63.61
2023-05-06T10:48:34.856Z,61.21
2023-05-06T10:51:28.187Z,64.85
2023-05-06T10:54:02.247Z,64.49
2023-05-06T10:56:31.441Z,65.70
2023-05-06T10:59:04.011Z,66.90
2023-05-06T11:01:32.889Z,62.97
2023-05-06T11:04:05.768Z,65.00
2023-05-06T11:06:34.828Z,63.43
2023-05-06T11:09:04.008Z,60.79
2023-05-06T11:11:51.994Z,61.93
2023-05-06T11:14:28.142Z,60.26
2023-05-06T11:16:58.245Z,64.36
2023-05-06T11:19:27.014Z,62.52
2023-05-06T11:21:57.631Z,61.22
2023-05-06T11:24:27.480Z,61.44
2023-05-06T11:26:55.546Z,60.52
2023-05-06T11:29:23.924Z,58.43
2023-05-06T11:31:52.868Z,57.59
2023-05-06T11:34:25.060Z,59.02
2023-05-06T11:37:00.586Z,57.22
2023-05-06T11:39:30.611Z,57.23
2023-05-06T11:42:03.765Z,59.03
2023-05-06T11:44:33.007Z,59.57
2023-05-06T11:47:02.023Z,60.16
2023-05-06T11:49:31.005Z,60.90
2023-05-06T11:51:58.488Z,56.43
2023-05-06T11:54:27.680Z,56.48
2023-05-06T11:56:57.445Z,56.83
2023-05-06T11:59:30.413Z,58.64
2023-05-06T12:01:59.738Z,57.45
2023-05-06T12:04:27.447Z,57.85
2023-05-06T12:06:57.152Z,58.67
2023-05-06T12:09:25.449Z,56.42
2023-05-06T12:11:53.531Z,57.38
2023-05-06T12:14:21.249Z,58.49
2023-05-06T12:16:48.900Z,60.62
2023-05-06T12:19:19.387Z,57.85
2023-05-06T12:21:47.245Z,54.37
2023-05-06T12:24:16.565Z,57.66
2023-05-06T12:26:46.110Z,54.32
2023-05-06T12:29:17.600Z,55.16
2023-05-06T12:31:47.075Z,48.98
2023-05-06T12:34:16.030Z,51.60
2023-05-06T12:36:45.572Z,49.79
2023-05-06T12:39:14.425Z,52.64
2023-05-06T12:41:44.959Z,52.92
2023-05-06T12:44:32.145Z,53.23
2023-05-06T12:47:00.547Z,52.85
2023-05-06T12:49:28.203Z,51.84
2023-05-06T12:52:09.472Z,51.92
2023-05-06T12:54:37.377Z,51.63
2023-05-06T12:57:06.684Z,49.15
2023-05-06T12:59:35.714Z,50.64
2023-05-06T13:02:03.346Z,51.41
2023-05-06T13:04:30.989Z,52.71
2023-05-06T13:06:58.778Z,53.39
2023-05-06T13:09:26.800Z,53.81
2023-05-06T13:11:55.082Z,53.22
2023-05-06T13:14:23.967Z,54.65
2023-05-06T13:16:51.584Z,53.93
2023-05-06T13:19:31.584Z,54.58
2023-05-06T13:22:00.387Z,54.36
2023-05-06T13:24:28.130Z,53.06
2023-05-06T13:26:56.267Z,53.56
2023-05-06T13:29:25.370Z,52.70
2023-05-06T13:31:53.721Z,54.57
2023-05-06T13:34:21.241Z,53.63
2023-05-06T13:36:49.554Z,54.08
2023-05-06T13:39:17.453Z,54.01
2023-05-06T13:41:47.403Z,55.76
2023-05-06T13:44:14.892Z,54.00
2023-05-06T13:46:45.622Z,53.32
2023-05-06T13:49:14.861Z,53.89
2023-05-06T13:51:42.338Z,52.97
2023-05-06T13:54:10.078Z,53.22
2023-05-06T13:56:37.713Z,51.36
2023-05-06T13:59:05.276Z,54.54
2023-05-06T14:01:32.941Z,51.48
2023-05-06T14:04:01.782Z,49.62
2023-05-06T14:06:29.297Z,50.61
2023-05-06T14:08:56.834Z,52.94
2023-05-06T14:11:24.473Z,50.10
2023-05-06T14:13:51.925Z,51.46
2023-05-06T14:16:19.469Z,50.01
2023-05-06T14:18:46.923Z,48.58
2023-05-06T14:21:15.750Z,49.41
2023-05-06T14:23:43.231Z,46.85
2023-05-06T14:26:10.878Z,44.77
2023-05-06T14:28:38.330Z,44.75
2023-05-06T14:31:06.178Z,46.84
2023-05-06T14:33:33.773Z,45.20
2023-05-06T14:36:03.281Z,47.15
2023-05-06T14:38:32.246Z,48.04
2023-05-06T14:40:59.981Z,45.65
2023-05-06T14:43:27.453Z,46.15
2023-05-06T14:45:54.979Z,46.59
2023-05-06T14:48:22.567Z,47.12
2023-05-06T14:50:49.983Z,44.16
2023-05-06T14:53:17.447Z,48.51
2023-05-06T14:55:46.289Z,46.17
2023-05-06T14:58:13.744Z,46.08
2023-05-06T15:00:41.317Z,47.20
2023-05-06T15:03:08.849Z,48.89
2023-05-06T15:05:37.077Z,47.22
2023-05-06T15:08:04.710Z,47.89
2023-05-06T15:10:32.263Z,49.76
2023-05-06T15:13:01.161Z,50.20
2023-05-06T15:15:28.851Z,49.72
2023-05-06T15:17:56.463Z,47.55
2023-05-06T15:20:24.129Z,49.76
2023-05-06T15:22:51.626Z,48.71
2023-05-06T15:25:33.348Z,49.35
2023-05-06T15:28:03.694Z,48.66
2023-05-06T15:30:31.259Z,49.82
2023-05-06T15:32:58.812Z,49.54
2023-05-06T15:35:27.095Z,52.29
2023-05-06T15:37:58.339Z,49.05
2023-05-06T15:40:26.396Z,50.52
2023-05-06T15:42:53.761Z,50.50
2023-05-06T15:45:23.542Z,49.33
2023-05-06T15:47:51.170Z,48.95
2023-05-06T15:50:32.420Z,49.82
2023-05-06T15:53:01.176Z,50.74
2023-05-06T15:55:28.828Z,49.73
2023-05-06T15:58:00.436Z,49.12
2023-05-06T16:00:29.642Z,49.73
2023-05-06T16:02:57.244Z,49.30
2023-05-06T16:05:24.896Z,50.37
2023-05-06T16:07:52.341Z,51.04
2023-05-06T16:10:19.787Z,48.88
2023-05-06T16:12:47.344Z,48.96
2023-05-06T16:15:14.873Z,50.86
2023-05-06T16:17:43.786Z,50.47
2023-05-06T16:20:12.751Z,51.11
2023-05-06T16:22:40.828Z,51.66
2023-05-06T16:25:08.899Z,51.95
2023-05-06T16:27:36.219Z,50.15
2023-05-06T16:30:03.884Z,51.22
2023-05-06T16:32:31.577Z,53.44
2023-05-06T16:35:00.648Z,53.16
2023-05-06T16:37:29.029Z,51.00
2023-05-06T16:39:56.677Z,50.72
2023-05-06T16:42:24.177Z,49.98
2023-05-06T16:44:52.141Z,49.08
2023-05-06T16:47:23.145Z,49.93
2023-05-06T16:49:50.859Z,52.36
2023-05-06T16:52:20.156Z,51.97
2023-05-06T16:54:47.777Z,50.29
2023-05-06T16:57:15.371Z,49.02
2023-05-06T16:59:42.822Z,48.37
2023-05-06T17:02:10.447Z,49.62
2023-05-06T17:04:38.056Z,51.16
2023-05-06T17:07:05.618Z,51.09
2023-05-06T17:09:34.495Z,50.87
2023-05-06T17:12:02.362Z,50.62
2023-05-06T17:14:29.796Z,51.13
2023-05-06T17:16:58.826Z,51.06
2023-05-06T17:19:26.540Z,50.66
2023-05-06T17:21:54.015Z,51.19
2023-05-06T17:24:21.643Z,51.71
2023-05-06T17:26:50.443Z,51.88
2023-05-06T17:29:18.002Z,52.13
2023-05-06T17:31:45.470Z,52.57
2023-05-06T17:34:12.905Z,52.23
2023-05-06T17:36:40.395Z,52.96
2023-05-06T17:39:09.425Z,52.36
2023-05-06T17:41:37.119Z,51.78
2023-05-06T17:44:06.751Z,52.34
2023-05-06T17:46:34.317Z,52.31
2023-05-06T17:49:01.986Z,53.18
2023-05-06T17:51:29.421Z,53.07
2023-05-06T17:53:58.154Z,52.75
2023-05-06T17:56:26.117Z,53.79
2023-05-06T17:58:53.577Z,53.43
2023-05-06T18:01:22.511Z,54.46
2023-05-06T18:03:50.156Z,55.85
2023-05-06T18:06:18.530Z,57.23
2023-05-06T18:08:46.136Z,56.36
2023-05-06T18:11:13.650Z,57.93
2023-05-06T18:13:41.149Z,58.51
2023-05-06T18:16:08.849Z,59.51
2023-05-06T18:18:37.647Z,60.79
2023-05-06T18:21:05.152Z,61.02
2023-05-06T18:23:33.119Z,61.75
2023-05-06T18:26:00.703Z,62.33
2023-05-06T18:28:28.155Z,62.96
2023-05-06T18:30:55.602Z,63.46
2023-05-06T18:33:23.150Z,65.37
2023-05-06T18:35:51.984Z,65.24
2023-05-06T18:38:19.457Z,65.53
2023-05-06T18:40:48.122Z,66.51
2023-05-06T18:43:15.594Z,66.17
2023-05-06T18:45:43.151Z,66.08
2023-05-06T18:48:11.531Z,66.41
2023-05-06T18:50:39.324Z,67.20
2023-05-06T18:53:08.122Z,68.71
2023-05-06T18:55:35.597Z,69.54
2023-05-06T18:58:05.504Z,68.42
2023-05-06T19:00:33.137Z,67.63
2023-05-06T19:03:00.808Z,68.25
2023-05-06T19:05:28.319Z,68.27
2023-05-06T19:07:55.817Z,69.04
2023-05-06T19:10:24.705Z,69.04
2023-05-06T19:12:52.227Z,69.43
2023-05-06T19:15:19.821Z,69.89
2023-05-06T19:17:47.412Z,69.71
2023-05-06T19:20:15.255Z,68.96
2023-05-06T19:22:43.156Z,69.28
2023-05-06T19:25:11.377Z,69.18
2023-05-06T19:27:40.396Z,68.85
2023-05-06T19:30:08.922Z,68.86
2023-05-06T19:32:36.485Z,69.27
2023-05-06T19:35:07.916Z,69.35
2023-05-06T19:37:36.484Z,68.95
2023-05-06T19:40:05.082Z,68.79
2023-05-06T19:42:33.626Z,69.54
2023-05-06T19:45:07.410Z,70.22
2023-05-06T19:47:35.036Z,70.02
2023-05-06T19:50:03.236Z,69.92
2023-05-06T19:52:31.461Z,69.80
2023-05-06T19:55:00.162Z,70.95
2023-05-06T19:57:27.698Z,71.34
2023-05-06T19:59:56.557Z,72.02
2023-05-06T20:02:26.635Z,70.96
2023-05-06T20:04:54.233Z,71.71
2023-05-06T20:07:22.988Z,73.02
2023-05-06T20:09:55.087Z,72.66
2023-05-06T20:12:22.893Z,73.02
2023-05-06T20:14:50.529Z,72.72
2023-05-06T20:17:18.022Z,72.91
2023-05-06T20:19:46.926Z,72.86
2023-05-06T20:22:14.699Z,72.76
2023-05-06T20:24:43.174Z,73.29
2023-05-06T20:27:10.760Z,73.34
2023-05-06T20:29:38.253Z,74.23
2023-05-06T20:32:06.321Z,73.28
2023-05-06T20:34:33.874Z,77.17
2023-05-06T20:37:03.727Z,76.14
2023-05-06T20:39:31.314Z,75.50
2023-05-06T20:41:58.863Z,76.33
2023-05-06T20:44:26.393Z,75.57
2023-05-06T20:46:53.908Z,76.18
2023-05-06T20:49:21.368Z,75.71
2023-05-06T20:51:48.820Z,76.25
2023-05-06T20:54:17.966Z,75.43
2023-05-06T20:56:45.418Z,76.49
2023-05-06T20:59:12.895Z,76.60
2023-05-06T21:01:40.498Z,76.12
2023-05-06T21:04:07.940Z,76.10
2023-05-06T21:06:35.414Z,75.86
2023-05-06T21:09:02.967Z,76.69
2023-05-06T21:11:31.796Z,76.11
2023-05-06T21:13:59.239Z,77.35
2023-05-06T21:16:26.670Z,77.22
2023-05-06T21:18:54.221Z,76.74
2023-05-06T21:21:23.993Z,77.99
2023-05-06T21:23:51.526Z,78.18
2023-05-06T21:26:19.014Z,77.62
2023-05-06T21:28:51.806Z,77.84
2023-05-06T21:31:20.545Z,78.34
2023-05-06T21:33:48.088Z,78.32
2023-05-06T21:36:15.744Z,78.14
2023-05-06T21:38:43.159Z,78.08
2023-05-06T21:41:10.641Z,78.50
2023-05-06T21:43:38.202Z,78.33
2023-05-06T21:46:07.148Z,79.14
2023-05-06T21:48:34.647Z,78.28
2023-05-06T21:51:04.089Z,78.22
2023-05-06T21:53:31.788Z,80.90
2023-05-06T21:55:59.222Z,81.36
2023-05-06T21:58:26.681Z,79.53
2023-05-06T22:00:54.243Z,78.74
2023-05-06T22:03:23.168Z,79.40
2023-05-06T22:05:50.771Z,78.91
2023-05-06T22:08:18.219Z,78.75
2023-05-06T22:10:45.699Z,79.55
2023-05-06T22:13:13.154Z,79.79
2023-05-06T22:15:41.682Z,78.77
2023-05-06T22:18:09.333Z,79.74
2023-05-06T22:20:38.699Z,80.34
2023-05-06T22:23:06.293Z,80.47
2023-05-06T22:25:33.853Z,80.41
2023-05-06T22:28:01.350Z,79.56
2023-05-06T22:30:28.879Z,79.54
2023-05-06T22:32:56.429Z,78.77
2023-05-06T22:35:24.264Z,78.98
2023-05-06T22:37:53.118Z,79.15
2023-05-06T22:40:20.792Z,79.38
2023-05-06T22:42:48.237Z,79.27
2023-05-06T22:45:15.821Z,78.80
2023-05-06T22:47:43.326Z,78.82
2023-05-06T22:50:12.090Z,79.13
2023-05-06T22:52:39.591Z,79.01
2023-05-06T22:55:10.148Z,79.38
2023-05-06T22:57:37.864Z,79.32
2023-05-06T23:00:08.107Z,79.26
2023-05-06T23:02:35.888Z,79.44
2023-05-06T23:05:03.925Z,80.74
2023-05-06T23:07:31.400Z,80.79
2023-05-06T23:09:59.654Z,81.14
2023-05-06T23:12:32.443Z,80.80
2023-05-06T23:14:59.948Z,80.55
2023-05-06T23:17:27.721Z,79.47
2023-05-06T23:19:55.292Z,79.73
2023-05-06T23:22:22.748Z,79.98
2023-05-06T23:24:51.264Z,81.43
2023-05-06T23:27:18.775Z,80.80
2023-05-06T23:29:47.573Z,81.12
2023-05-06T23:32:15.077Z,80.22
2023-05-06T23:34:42.507Z,80.67
2023-05-06T23:37:11.675Z,80.62
2023-05-06T23:39:39.136Z,80.55
2023-05-06T23:42:06.780Z,80.33
2023-05-06T23:44:34.274Z,80.32
2023-05-06T23:47:05.707Z,81.05
2023-05-06T23:49:33.250Z,81.27
2023-05-06T23:52:00.798Z,80.21
2023-05-06T23:54:28.373Z,82.41
2023-05-06T23:56:56.125Z,81.92
2023-05-06T23:59:23.682Z,81.75
